Time;durP1;ratioP1;P1;durP2;ratioP2;P2;SDS_P1;SDS_P2;PMS_P1;PMS_P2;Temp;Humidity;BMP_temperature;BMP_pressure;BME280_temperature;BME280_humidity;BME280_pressure;Samples;Min_cycle;Max_cycle;Signal;HPM_P1;HPM_P2
2021/12/17 04:00:24;;;;;;;80.57;17.13;;;8.00;99.90;;;;;;6074252;23;19924;-86
2021/12/17 04:02:50;;;;;;;98.55;19.05;;;8.10;99.90;;;;;;4979829;28;20034;-87
2021/12/17 04:05:15;;;;;;;86.93;17.35;;;8.00;99.90;;;;;;4996249;28;20049;-86
2021/12/17 04:07:41;;;;;;;93.18;18.98;;;8.10;99.90;;;;;;4995795;28;20077;-88
2021/12/17 04:10:07;;;;;;;80.55;18.85;;;8.00;99.90;;;;;;4997213;28;20054;-87
2021/12/17 04:12:48;;;;;;;71.72;16.25;;;8.00;99.90;;;;;;5013942;28;20050;-89
2021/12/17 04:15:15;;;;;;;74.53;17.05;;;8.00;99.90;;;;;;4979807;28;20038;-89
2021/12/17 04:17:45;;;;;;;81.55;17.60;;;8.00;99.90;;;;;;4996223;28;20056;-85
2021/12/17 04:20:11;;;;;;;104.57;20.08;;;8.00;99.90;;;;;;4996264;28;20046;-87
2021/12/17 04:22:37;;;;;;;87.72;17.77;;;8.10;99.90;;;;;;4980086;28;20116;-85
2021/12/17 04:25:03;;;;;;;63.70;16.58;;;8.00;99.90;;;;;;5013777;28;20096;-85
2021/12/17 04:27:28;;;;;;;78.05;17.42;;;8.10;99.90;;;;;;5013797;28;20113;-87
2021/12/17 04:29:56;;;;;;;99.22;19.23;;;8.00;99.90;;;;;;5013447;28;20113;-87
2021/12/17 04:32:22;;;;;;;77.97;17.40;;;8.10;99.90;;;;;;4980136;28;20092;-86
2021/12/17 04:34:48;;;;;;;82.90;19.45;;;8.00;99.90;;;;;;4995873;28;20049;-88
2021/12/17 04:37:13;;;;;;;100.05;19.73;;;8.00;99.90;;;;;;5013415;28;20037;-86
2021/12/17 04:39:39;;;;;;;101.60;20.48;;;8.10;99.90;;;;;;4997074;28;20077;-86
2021/12/17 04:42:31;;;;;;;98.00;21.27;;;8.00;99.90;;;;;;4995641;28;20381;-89
2021/12/17 04:44:58;;;;;;;110.93;21.88;;;8.00;99.90;;;;;;4996760;28;20061;-89
2021/12/17 04:58:21;;;;;;;99.47;19.08;;;8.00;99.90;;;;;;5000305;28;20077;-87
2021/12/17 05:00:46;;;;;;;87.13;18.35;;;7.90;99.90;;;;;;4999213;28;20403;-86
2021/12/17 05:03:12;;;;;;;97.85;19.42;;;7.90;99.90;;;;;;4999054;28;20462;-86
2021/12/17 05:05:38;;;;;;;90.50;19.17;;;7.90;99.90;;;;;;4999445;28;20077;-86
2021/12/17 05:08:09;;;;;;;105.32;20.63;;;7.90;99.90;;;;;;4999095;28;20084;-88
2021/12/17 05:18:32;;;;;;;138.55;22.17;;;7.90;99.90;;;;;;5017095;28;20455;-89
2021/12/17 05:21:02;;;;;;;97.82;21.25;;;7.90;99.90;;;;;;4999253;28;20049;-88
2021/12/17 05:23:32;;;;;;;98.20;20.70;;;7.90;99.90;;;;;;4983879;28;20041;-85
2021/12/17 05:26:00;;;;;;;116.50;21.30;;;7.80;99.90;;;;;;4998972;28;20054;-88
2021/12/17 05:28:26;;;;;;;111.15;21.35;;;7.80;99.90;;;;;;4998908;28;20128;-88
2021/12/17 05:30:53;;;;;;;104.63;20.55;;;7.90;99.90;;;;;;4982463;28;20124;-88
2021/12/17 05:33:22;;;;;;;104.32;20.55;;;7.90;99.90;;;;;;4998471;28;20081;-87
2021/12/17 05:35:48;;;;;;;108.97;20.90;;;7.90;99.90;;;;;;4982949;28;20041;-87
2021/12/17 05:38:15;;;;;;;121.40;21.45;;;7.80;99.90;;;;;;4999362;28;20400;-86
2021/12/17 05:40:42;;;;;;;97.03;19.83;;;7.80;99.90;;;;;;4998833;28;20081;-88
2021/12/17 05:43:09;;;;;;;131.50;21.65;;;7.90;99.90;;;;;;4982487;28;20042;-88
2021/12/17 05:48:10;;;;;;;123.28;22.33;;;7.90;99.90;;;;;;5016839;28;20042;-89
2021/12/17 05:50:39;;;;;;;119.50;22.20;;;7.90;99.90;;;;;;4998833;28;20387;-85
2021/12/17 05:53:05;;;;;;;109.68;20.92;;;7.90;99.90;;;;;;5016110;28;20045;-87
2021/12/17 05:55:32;;;;;;;113.60;20.70;;;7.90;99.90;;;;;;4998697;28;20037;-88
2021/12/17 05:57:57;;;;;;;115.50;22.02;;;7.80;99.90;;;;;;4998565;28;20041;-86
2021/12/17 06:00:24;;;;;;;109.40;21.85;;;7.90;99.90;;;;;;4998638;28;20491;-87
2021/12/17 06:02:51;;;;;;;107.53;22.52;;;7.90;99.90;;;;;;4983127;28;20042;-88
2021/12/17 06:05:17;;;;;;;132.32;23.77;;;7.90;99.90;;;;;;4998464;28;20044;-88
2021/12/17 06:07:43;;;;;;;109.82;23.20;;;7.90;99.90;;;;;;4998513;28;20038;-88
2021/12/17 06:10:10;;;;;;;132.73;23.45;;;7.90;99.90;;;;;;4998401;28;20381;-89
2021/12/17 06:12:37;;;;;;;113.88;23.08;;;7.90;99.90;;;;;;4982471;28;20410;-88
2021/12/17 06:15:09;;;;;;;98.60;20.05;;;7.90;99.90;;;;;;4997630;28;20052;-86
2021/12/17 06:17:34;;;;;;;133.18;23.73;;;7.90;99.90;;;;;;4982698;28;20096;-77
2021/12/17 06:20:00;;;;;;;147.38;23.20;;;7.90;99.90;;;;;;5016506;28;20046;-81
2021/12/17 06:22:26;;;;;;;157.70;24.75;;;7.90;99.90;;;;;;4981616;28;20048;-84
2021/12/17 06:24:52;;;;;;;187.77;26.92;;;7.90;99.90;;;;;;5015447;28;20049;-81
2021/12/17 06:27:20;;;;;;;187.82;26.77;;;7.90;99.90;;;;;;4997432;28;20049;-84
2021/12/17 06:29:45;;;;;;;175.75;26.60;;;7.90;99.90;;;;;;4997829;28;20463;-84
2021/12/17 06:32:11;;;;;;;254.05;29.75;;;7.80;99.90;;;;;;4997256;28;20134;-83
2021/12/17 06:34:37;;;;;;;264.55;30.77;;;7.80;99.90;;;;;;4997716;28;20407;-81
2021/12/17 06:37:04;;;;;;;246.70;29.98;;;7.80;99.90;;;;;;4997729;28;20121;-84
2021/12/17 06:39:30;;;;;;;276.90;31.00;;;7.80;99.90;;;;;;5015298;28;20092;-82
2021/12/17 06:41:57;;;;;;;301.92;31.52;;;7.80;99.90;;;;;;4997833;28;20038;-81
2021/12/17 06:44:25;;;;;;;209.60;27.17;;;7.80;99.90;;;;;;4997852;28;20484;-83
2021/12/17 06:47:04;;;;;;;247.98;29.88;;;7.80;99.90;;;;;;4997654;28;20169;-83
2021/12/17 06:49:56;;;;;;;327.38;33.55;;;7.80;99.90;;;;;;5015002;28;20472;-83
2021/12/17 06:55:08;;;;;;;203.20;26.35;;;7.80;99.90;;;;;;4997320;28;19927;-84
2021/12/17 07:11:12;;;;;;;196.27;26.58;;;7.70;99.90;;;;;;4996451;28;20054;-83
2021/12/17 07:21:37;;;;;;;210.25;27.77;;;7.70;99.90;;;;;;4996880;28;20527;-83
2021/12/17 07:30:52;;;;;;;;;;;7.70;99.90;;;;;;5014870;28;20124;-83
2021/12/17 07:32:19;;;;;;;194.20;27.97;;;7.70;99.90;;;;;;5013997;28;19918;-83
2021/12/17 07:35:13;;;;;;;155.10;25.92;;;7.70;99.90;;;;;;4980250;28;20450;-83
2021/12/17 07:40:09;;;;;;;128.73;24.70;;;7.70;99.90;;;;;;4996346;28;20175;-83
2021/12/17 07:42:35;;;;;;;172.75;27.10;;;7.70;99.90;;;;;;4996708;28;20037;-82
2021/12/17 07:45:01;;;;;;;157.30;25.90;;;7.70;99.90;;;;;;4996080;28;20092;-83
2021/12/17 07:47:27;;;;;;;149.68;25.40;;;7.70;99.90;;;;;;4995946;28;20057;-84
2021/12/17 07:49:53;;;;;;;177.73;25.83;;;7.70;99.90;;;;;;4979627;28;20045;-83
2021/12/17 07:52:20;;;;;;;175.13;25.17;;;7.70;99.90;;;;;;5012783;28;20053;-84
2021/12/17 07:54:45;;;;;;;167.00;26.77;;;7.70;99.90;;;;;;4995117;28;20144;-82
2021/12/17 07:57:11;;;;;;;247.95;29.52;;;7.70;99.90;;;;;;4995084;28;20527;-83
2021/12/17 07:59:37;;;;;;;213.35;27.23;;;7.70;99.90;;;;;;4995199;28;20034;-84
2021/12/17 08:02:03;;;;;;;219.90;28.40;;;7.70;99.90;;;;;;4994653;28;20041;-83
2021/12/17 08:04:29;;;;;;;214.48;29.50;;;7.70;99.90;;;;;;4994858;28;20081;-81
2021/12/17 08:06:55;;;;;;;274.75;30.60;;;7.70;99.90;;;;;;4995096;28;20511;-82
2021/12/17 08:09:21;;;;;;;214.23;28.38;;;7.70;99.90;;;;;;5012378;28;20076;-81
2021/12/17 08:11:54;;;;;;;199.85;28.05;;;7.70;99.90;;;;;;5012728;28;20513;-85
2021/12/17 08:14:20;;;;;;;204.40;28.58;;;7.70;99.90;;;;;;4978737;28;20050;-80
2021/12/17 08:25:15;;;;;;;181.38;28.25;;;7.70;99.90;;;;;;4994272;28;20062;-82
2021/12/17 08:30:21;;;;;;;159.75;27.85;;;7.70;99.90;;;;;;4995327;28;20388;-81
2021/12/17 08:32:47;;;;;;;135.68;26.15;;;7.70;99.90;;;;;;4995163;28;20046;-82
2021/12/17 08:35:13;;;;;;;154.65;27.13;;;7.80;99.90;;;;;;4985127;28;20037;-82
2021/12/17 08:37:39;;;;;;;153.80;28.63;;;7.70;99.90;;;;;;5000688;28;20030;-82
2021/12/17 08:40:07;;;;;;;127.82;26.77;;;7.80;99.90;;;;;;5023455;28;20108;-80
2021/12/17 08:42:33;;;;;;;144.70;28.25;;;7.80;99.90;;;;;;5008670;28;20045;-81
2021/12/17 08:45:00;;;;;;;152.80;28.05;;;7.80;99.90;;;;;;5009059;28;20065;-77
2021/12/17 08:47:26;;;;;;;159.68;29.10;;;7.80;99.90;;;;;;4998798;28;20049;-80
2021/12/17 08:50:06;;;;;;;153.50;30.20;;;7.80;99.90;;;;;;4996608;28;20073;-83
2021/12/17 08:52:32;;;;;;;163.00;29.38;;;7.80;99.90;;;;;;4995619;28;20132;-83
2021/12/17 08:54:57;;;;;;;152.93;29.20;;;7.80;99.90;;;;;;4995578;28;20084;-82
2021/12/17 08:57:23;;;;;;;133.30;28.80;;;7.80;99.90;;;;;;4995651;28;20066;-81
2021/12/17 08:59:49;;;;;;;133.57;27.63;;;7.90;99.90;;;;;;5012455;28;20049;-82
2021/12/17 09:02:15;;;;;;;106.07;23.48;;;7.90;99.90;;;;;;4995207;28;20400;-82
2021/12/17 09:04:40;;;;;;;101.30;24.20;;;7.90;99.90;;;;;;4995239;28;20046;-83
2021/12/17 09:07:06;;;;;;;104.20;23.00;;;7.90;99.90;;;;;;4979209;28;20506;-80
2021/12/17 09:09:32;;;;;;;117.82;25.45;;;7.90;99.90;;;;;;4995203;28;20065;-81
2021/12/17 09:11:58;;;;;;;102.60;25.33;;;7.90;99.90;;;;;;4995157;28;20037;-81
2021/12/17 09:14:23;;;;;;;115.40;25.15;;;7.90;99.90;;;;;;4994830;28;20050;-81
2021/12/17 09:16:50;;;;;;;104.95;23.80;;;7.90;99.90;;;;;;4994796;28;20132;-80
2021/12/17 09:19:16;;;;;;;89.95;21.13;;;7.90;99.90;;;;;;4994854;28;20049;-81
2021/12/17 09:21:43;;;;;;;77.80;19.88;;;7.90;99.90;;;;;;4994976;28;20036;-82
2021/12/17 09:24:10;;;;;;;79.60;19.60;;;7.90;99.90;;;;;;4994708;28;20042;-82
2021/12/17 09:26:35;;;;;;;81.68;21.92;;;7.90;99.90;;;;;;4995334;28;20050;-81
2021/12/17 09:29:01;;;;;;;83.82;22.13;;;8.00;99.90;;;;;;4978853;28;20038;-82
2021/12/17 09:31:27;;;;;;;86.07;21.08;;;8.00;99.90;;;;;;4979283;28;20373;-82
2021/12/17 09:33:53;;;;;;;78.93;19.98;;;8.00;99.90;;;;;;4997969;28;20484;-82
2021/12/17 09:36:19;;;;;;;77.35;20.50;;;8.00;99.90;;;;;;4998175;28;20403;-83
2021/12/17 09:38:49;;;;;;;79.90;20.05;;;8.00;99.90;;;;;;4998291;28;20049;-82
2021/12/17 09:41:16;;;;;;;70.97;18.85;;;8.00;99.90;;;;;;4998058;28;20125;-81
2021/12/17 09:43:42;;;;;;;82.05;20.75;;;8.00;99.90;;;;;;4981593;28;20125;-82
2021/12/17 09:46:08;;;;;;;73.57;18.92;;;8.00;99.90;;;;;;4997568;28;20499;-81
2021/12/17 09:48:35;;;;;;;76.25;19.63;;;8.00;99.90;;;;;;4997705;28;20045;-83
2021/12/17 09:51:03;;;;;;;62.30;17.90;;;8.10;99.90;;;;;;4997603;28;20045;-82
2021/12/17 09:53:29;;;;;;;70.82;19.17;;;8.00;99.90;;;;;;4997851;28;20408;-82
2021/12/17 09:55:54;;;;;;;65.75;18.08;;;8.10;99.90;;;;;;4997929;28;20034;-81
2021/12/17 09:58:20;;;;;;;63.08;18.55;;;8.10;99.90;;;;;;4998058;28;20046;-83
2021/12/17 10:00:46;;;;;;;53.67;16.77;;;8.10;99.90;;;;;;4999251;28;20476;-84
2021/12/17 10:03:11;;;;;;;52.33;16.67;;;8.10;99.90;;;;;;4998303;28;20480;-86
2021/12/17 10:05:39;;;;;;;48.00;16.25;;;8.10;99.90;;;;;;5016275;28;20123;-86
2021/12/17 10:08:13;;;;;;;48.97;15.35;;;8.10;99.90;;;;;;5016061;28;20057;-80
2021/12/17 10:10:45;;;;;;;44.75;14.10;;;8.20;99.90;;;;;;5015725;28;20038;-81
2021/12/17 10:13:20;;;;;;;53.72;16.13;;;8.20;99.90;;;;;;4997517;28;20042;-81
2021/12/17 10:15:49;;;;;;;46.75;15.88;;;8.20;99.90;;;;;;5015965;28;20403;-81
2021/12/17 10:18:16;;;;;;;59.30;17.15;;;8.20;99.90;;;;;;4997437;28;20072;-80
2021/12/17 10:20:53;;;;;;;55.05;17.38;;;8.20;99.90;;;;;;4997491;28;20349;-80
2021/12/17 10:23:21;;;;;;;63.78;17.67;;;8.30;99.90;;;;;;4997036;28;20080;-79
2021/12/17 10:25:48;;;;;;;50.45;16.00;;;8.20;99.90;;;;;;4997553;28;20068;-79
2021/12/17 10:28:14;;;;;;;51.00;17.40;;;8.30;99.90;;;;;;4997851;28;20117;-82
2021/12/17 10:30:43;;;;;;;55.63;17.30;;;8.30;99.90;;;;;;5015001;28;20030;-81
2021/12/17 10:33:11;;;;;;;50.00;16.35;;;8.30;99.90;;;;;;4997086;28;20546;-79
2021/12/17 10:35:45;;;;;;;52.88;16.63;;;8.30;99.90;;;;;;4981130;28;20084;-81
2021/12/17 10:38:15;;;;;;;57.97;16.80;;;8.30;99.90;;;;;;5015007;28;20069;-81
2021/12/17 10:41:03;;;;;;;43.72;16.10;;;8.30;99.90;;;;;;4997139;28;20049;-82
2021/12/17 10:43:37;;;;;;;48.90;16.83;;;8.40;99.90;;;;;;4982049;28;20050;-80
2021/12/17 10:48:55;;;;;;;41.38;15.35;;;8.40;99.90;;;;;;5006053;28;20099;-82
2021/12/17 10:53:58;;;;;;;40.25;14.60;;;8.50;99.90;;;;;;5016863;28;20503;-81
2021/12/17 10:56:45;;;;;;;43.83;15.98;;;8.50;99.90;;;;;;5016686;28;20029;-81
2021/12/17 10:59:13;;;;;;;46.92;15.95;;;8.50;99.90;;;;;;4986850;28;20395;-81
2021/12/17 11:01:45;;;;;;;42.95;16.45;;;8.50;99.90;;;;;;5016302;28;20552;-80
2021/12/17 11:04:20;;;;;;;48.70;16.77;;;8.50;99.90;;;;;;5016186;28;20046;-80
2021/12/17 11:06:59;;;;;;;48.30;16.48;;;8.60;99.90;;;;;;5016563;28;20041;-80
2021/12/17 11:09:34;;;;;;;40.50;15.65;;;8.60;99.90;;;;;;4999950;28;20137;-81
2021/12/17 11:12:17;;;;;;;42.90;16.13;;;8.60;99.90;;;;;;5034219;28;20096;-80
2021/12/17 11:14:45;;;;;;;41.22;14.95;;;8.60;99.90;;;;;;5016173;28;20045;-80
2021/12/17 11:17:12;;;;;;;41.92;16.13;;;8.70;99.90;;;;;;5016049;28;20037;-81
2021/12/17 11:19:40;;;;;;;49.15;16.65;;;8.70;99.90;;;;;;5015856;28;20475;-82
2021/12/17 11:22:05;;;;;;;47.70;17.40;;;8.70;99.90;;;;;;4975115;28;20049;-81
2021/12/17 11:24:34;;;;;;;50.78;21.67;;;8.70;99.90;;;;;;5013664;28;20038;-83
2021/12/17 11:27:01;;;;;;;57.00;19.92;;;8.80;99.90;;;;;;4999236;28;20053;-82
2021/12/17 11:29:27;;;;;;;43.90;16.67;;;8.80;99.90;;;;;;4989980;28;20060;-82
2021/12/17 11:31:53;;;;;;;44.25;16.90;;;8.80;99.90;;;;;;4996178;28;20053;-80
2021/12/17 11:34:19;;;;;;;39.25;14.90;;;8.90;99.90;;;;;;4995970;28;20141;-80
2021/12/17 11:36:46;;;;;;;40.13;16.13;;;8.90;99.90;;;;;;4996391;28;20120;-79
2021/12/17 11:39:33;;;;;;;43.95;17.73;;;8.90;99.90;;;;;;4980106;28;20049;-80
2021/12/17 11:42:16;;;;;;;43.65;18.25;;;9.00;99.90;;;;;;4979868;28;20041;-79
2021/12/17 11:44:52;;;;;;;44.40;20.70;;;9.00;99.90;;;;;;4996327;28;20052;-80
2021/12/17 11:47:17;;;;;;;43.63;15.85;;;9.00;99.90;;;;;;4995961;28;20088;-79
2021/12/17 11:49:52;;;;;;;40.85;16.67;;;9.00;99.90;;;;;;5013874;28;20033;-80
2021/12/17 11:52:33;;;;;;;43.60;16.30;;;9.00;99.90;;;;;;5013696;28;20034;-80
2021/12/17 11:55:23;;;;;;;39.20;17.17;;;9.00;99.90;;;;;;4995404;28;20057;-81
2021/12/17 11:57:53;;;;;;;44.55;18.73;;;9.00;99.90;;;;;;4965976;28;20046;-80
2021/12/17 12:00:25;;;;;;;36.88;15.93;;;9.00;99.90;;;;;;5013462;28;20038;-80
2021/12/17 12:02:54;;;;;;;44.58;16.48;;;9.00;99.90;;;;;;4995697;28;20038;-80
2021/12/17 12:05:37;;;;;;;42.38;16.35;;;9.00;99.90;;;;;;4995706;28;20038;-80
2021/12/17 12:08:25;;;;;;;38.80;15.90;;;9.00;99.90;;;;;;4995856;28;20111;-81
2021/12/17 12:11:06;;;;;;;41.20;16.55;;;9.10;99.90;;;;;;4995903;28;20050;-80
2021/12/17 12:13:36;;;;;;;39.13;17.05;;;9.00;99.90;;;;;;4995487;28;20057;-78
2021/12/17 12:16:04;;;;;;;42.40;18.17;;;9.10;99.90;;;;;;4995238;28;20030;-79
2021/12/17 12:18:59;;;;;;;40.75;17.38;;;9.10;99.90;;;;;;5013194;28;20049;-80
2021/12/17 12:21:33;;;;;;;34.95;15.70;;;9.10;99.90;;;;;;4978712;28;20050;-81
2021/12/17 12:24:14;;;;;;;36.00;15.85;;;9.10;99.90;;;;;;4995954;28;20052;-80
2021/12/17 12:26:50;;;;;;;35.20;14.40;;;9.10;99.90;;;;;;4995463;28;20046;-82
2021/12/17 12:29:24;;;;;;;34.55;15.40;;;9.10;99.90;;;;;;4995498;28;20049;-80
2021/12/17 12:31:52;;;;;;;38.03;14.63;;;9.10;99.90;;;;;;4988075;28;20045;-81
2021/12/17 12:34:29;;;;;;;42.08;15.80;;;9.10;99.90;;;;;;4998515;28;20041;-80
2021/12/17 12:37:06;;;;;;;38.97;15.85;;;9.10;99.90;;;;;;4998903;28;20589;-80
2021/12/17 12:39:38;;;;;;;43.38;16.05;;;9.10;99.90;;;;;;4988776;28;20045;-80
2021/12/17 12:42:24;;;;;;;39.13;15.68;;;9.10;99.90;;;;;;4995425;28;20038;-81
2021/12/17 12:44:49;;;;;;;;;;;9.10;99.90;;;;;;4995820;28;20132;-81
2021/12/17 12:47:15;;;;;;;;;;;9.10;99.90;;;;;;5013383;28;20017;-80
2021/12/17 12:49:46;;;;;;;33.67;14.90;;;9.10;99.90;;;;;;5013442;28;19917;-79
2021/12/17 12:52:25;;;;;;;35.92;14.43;;;9.10;99.90;;;;;;4995461;28;20500;-80
2021/12/17 12:54:58;;;;;;;36.15;15.95;;;9.10;99.90;;;;;;4995751;28;20388;-81
2021/12/17 12:57:29;;;;;;;43.80;18.42;;;9.10;99.90;;;;;;4995313;28;20092;-80
2021/12/17 12:59:58;;;;;;;38.95;17.15;;;9.10;99.90;;;;;;4999298;28;20046;-75
2021/12/17 13:02:25;;;;;;;38.50;16.38;;;9.10;99.90;;;;;;5005530;28;20045;-77
2021/12/17 13:04:57;;;;;;;37.30;15.73;;;9.10;99.90;;;;;;4985344;28;20049;-77
2021/12/17 13:07:39;;;;;;;36.00;15.75;;;9.10;99.90;;;;;;5020240;28;20052;-77
2021/12/17 13:10:07;;;;;;;35.00;15.57;;;9.10;99.90;;;;;;4997995;28;20058;-79
2021/12/17 13:12:35;;;;;;;39.65;16.55;;;9.10;99.90;;;;;;4998881;28;20037;-80
2021/12/17 13:15:18;;;;;;;39.53;16.08;;;9.10;99.90;;;;;;4998311;28;20092;-80
2021/12/17 13:23:25;;;;;;;40.55;17.13;;;9.10;99.90;;;;;;5016038;28;20049;-80
2021/12/17 13:26:09;;;;;;;34.95;16.88;;;9.10;99.90;;;;;;4998300;28;20030;-80
2021/12/17 13:28:54;;;;;;;33.00;14.98;;;9.10;99.90;;;;;;4998956;28;20041;-80
2021/12/17 13:31:57;;;;;;;38.70;15.20;;;9.10;99.90;;;;;;4998084;28;20093;-80
2021/12/17 13:34:43;;;;;;;30.23;14.60;;;9.10;99.90;;;;;;4981942;28;20042;-80
2021/12/17 13:37:30;;;;;;;32.60;14.00;;;9.10;99.90;;;;;;4998383;28;20132;-80
2021/12/17 13:39:57;;;;;;;36.42;17.45;;;9.10;99.90;;;;;;4996332;28;20104;-80
2021/12/17 13:42:25;;;;;;;39.10;17.15;;;9.10;99.90;;;;;;4967297;28;20098;-81
2021/12/17 13:45:04;;;;;;;31.83;15.32;;;9.20;99.90;;;;;;4998057;28;20049;-79
2021/12/17 13:47:38;;;;;;;37.10;15.32;;;9.10;99.90;;;;;;4998122;28;20050;-80
2021/12/17 13:50:17;;;;;;;32.10;14.40;;;9.10;99.90;;;;;;4998318;28;20041;-81
2021/12/17 13:53:00;;;;;;;37.15;15.52;;;9.10;99.90;;;;;;4998324;28;20052;-80
2021/12/17 13:55:28;;;;;;;37.70;18.58;;;9.10;99.90;;;;;;4997641;28;20411;-79
2021/12/17 13:57:55;;;;;;;49.33;22.05;;;9.10;99.90;;;;;;4997905;28;20100;-80
2021/12/17 14:00:23;;;;;;;35.60;17.75;;;9.10;99.90;;;;;;4998248;28;20121;-80
2021/12/17 14:02:50;;;;;;;34.25;15.57;;;9.10;99.90;;;;;;5015705;28;20519;-81
2021/12/17 14:05:20;;;;;;;34.00;15.63;;;9.10;99.90;;;;;;4997604;28;20049;-82
2021/12/17 14:07:50;;;;;;;32.97;15.60;;;9.10;99.90;;;;;;4995609;28;20052;-80
2021/12/17 14:10:19;;;;;;;36.28;15.70;;;9.10;99.90;;;;;;4997136;28;20052;-80
2021/12/17 14:12:45;;;;;;;32.97;14.65;;;9.10;99.90;;;;;;4997925;28;20052;-79
2021/12/17 14:15:12;;;;;;;41.28;16.35;;;9.10;99.90;;;;;;4997414;28;20038;-80
2021/12/17 14:17:42;;;;;;;37.25;16.58;;;9.10;99.90;;;;;;4997393;28;20561;-81
2021/12/17 14:20:20;;;;;;;50.88;21.50;;;9.10;99.90;;;;;;4997442;28;20068;-81
2021/12/17 14:22:48;;;;;;;49.05;19.25;;;9.10;99.90;;;;;;4981456;28;20400;-82
2021/12/17 14:25:39;;;;;;;39.08;16.40;;;9.10;99.90;;;;;;5000588;28;20353;-80
2021/12/17 14:28:26;;;;;;;34.08;14.98;;;9.10;99.90;;;;;;4992422;28;20085;-80
2021/12/17 14:31:03;;;;;;;29.63;14.20;;;9.10;99.90;;;;;;4997079;28;20072;-79
2021/12/17 14:33:35;;;;;;;35.80;15.90;;;9.10;99.90;;;;;;4997424;28;20046;-79
2021/12/17 14:36:06;;;;;;;32.60;13.95;;;9.10;99.90;;;;;;4997636;28;20073;-79
2021/12/17 14:38:35;;;;;;;32.67;14.32;;;9.10;99.90;;;;;;4996959;28;20052;-80
2021/12/17 14:41:02;;;;;;;32.88;13.32;;;9.10;99.90;;;;;;4997382;28;20436;-80
2021/12/17 14:43:44;;;;;;;28.70;12.73;;;9.10;99.90;;;;;;5014921;28;20041;-79
2021/12/17 15:04:42;;;;;;;32.03;12.35;;;9.10;99.90;;;;;;4996376;28;20092;-80
2021/12/17 15:07:08;;;;;;;23.20;10.05;;;9.00;99.90;;;;;;4996905;28;20050;-80
2021/12/17 15:09:38;;;;;;;20.52;9.68;;;9.10;99.90;;;;;;4996620;28;20048;-80
2021/12/17 15:12:13;;;;;;;18.50;9.27;;;9.00;99.90;;;;;;4994255;28;20056;-80
2021/12/17 15:14:39;;;;;;;23.13;10.38;;;9.00;99.90;;;;;;4976623;28;20483;-80
2021/12/17 15:17:04;;;;;;;25.73;10.98;;;9.00;99.90;;;;;;4992410;28;20052;-80
2021/12/17 15:19:31;;;;;;;29.88;13.13;;;9.00;99.90;;;;;;4995688;28;20042;-79
2021/12/17 15:21:56;;;;;;;35.53;12.65;;;9.00;99.90;;;;;;4979477;28;20046;-80
2021/12/17 15:24:22;;;;;;;22.63;10.82;;;9.00;99.90;;;;;;5013690;28;20030;-80
2021/12/17 15:26:48;;;;;;;24.67;12.25;;;9.00;99.90;;;;;;4995030;28;20500;-81
2021/12/17 15:29:13;;;;;;;22.80;11.10;;;9.00;99.90;;;;;;4979190;28;20037;-79
2021/12/17 15:31:39;;;;;;;26.35;12.45;;;9.00;99.90;;;;;;4996223;28;20499;-79
2021/12/17 15:34:04;;;;;;;26.45;12.45;;;9.00;99.90;;;;;;4995181;28;20041;-79
2021/12/17 15:36:30;;;;;;;26.40;12.15;;;9.00;99.90;;;;;;4995853;28;20128;-79
2021/12/17 15:38:55;;;;;;;27.65;12.98;;;9.00;99.90;;;;;;5013093;28;20057;-80
2021/12/17 15:41:21;;;;;;;30.13;13.85;;;9.00;99.90;;;;;;4993914;28;20063;-81
2021/12/17 15:43:47;;;;;;;33.70;16.13;;;9.00;99.90;;;;;;4995687;28;20041;-80
2021/12/17 15:46:12;;;;;;;39.13;16.35;;;9.00;99.90;;;;;;4995463;28;20042;-80
2021/12/17 15:48:38;;;;;;;39.03;17.02;;;9.00;99.90;;;;;;4995381;28;20101;-78
2021/12/17 15:51:04;;;;;;;33.78;14.98;;;8.90;99.90;;;;;;4979481;28;20064;-80
2021/12/17 15:53:31;;;;;;;37.25;15.80;;;9.00;99.90;;;;;;4995221;28;20091;-80
2021/12/17 15:55:57;;;;;;;22.10;10.15;;;9.00;99.90;;;;;;4995491;28;20488;-79
2021/12/17 15:58:22;;;;;;;18.00;9.85;;;9.00;99.90;;;;;;4979093;28;20048;-80
2021/12/17 16:00:48;;;;;;;23.35;10.95;;;9.00;99.90;;;;;;4979176;28;20046;-80
2021/12/17 16:03:15;;;;;;;21.02;10.70;;;9.00;99.90;;;;;;4996082;28;20032;-82
2021/12/17 16:05:41;;;;;;;20.20;10.75;;;9.00;99.90;;;;;;4995627;28;20042;-80
2021/12/17 16:08:07;;;;;;;37.03;18.33;;;9.00;99.90;;;;;;4995693;28;20125;-80
2021/12/17 16:11:10;;;;;;;35.20;17.50;;;9.00;99.90;;;;;;5013242;28;20041;-81
2021/12/17 16:21:22;;;;;;;18.83;10.68;;;9.00;99.90;;;;;;4993514;28;20112;-79
2021/12/17 16:23:51;;;;;;;23.20;13.07;;;9.00;99.90;;;;;;4994928;28;20056;-80
2021/12/17 16:26:22;;;;;;;20.90;11.50;;;9.00;99.90;;;;;;4994912;28;20052;-80
2021/12/17 16:28:49;;;;;;;22.67;12.75;;;9.00;99.90;;;;;;5012985;28;20423;-79
2021/12/17 16:31:19;;;;;;;21.48;12.00;;;9.00;99.90;;;;;;4978436;28;20100;-80
2021/12/17 16:33:46;;;;;;;20.63;11.43;;;9.00;99.90;;;;;;5012841;28;20050;-80
2021/12/17 16:36:12;;;;;;;20.10;10.82;;;8.90;99.90;;;;;;4979222;28;20069;-81
2021/12/17 16:38:39;;;;;;;24.05;11.98;;;8.90;99.90;;;;;;4999995;28;20476;-81
2021/12/17 16:41:06;;;;;;;24.77;12.43;;;9.00;99.90;;;;;;5013035;28;20051;-81
2021/12/17 16:43:33;;;;;;;21.77;11.77;;;9.00;99.90;;;;;;5018815;28;20041;-80
2021/12/17 16:48:46;;;;;;;27.23;13.57;;;9.00;99.90;;;;;;5019416;28;20052;-80
2021/12/17 16:51:14;;;;;;;27.83;13.30;;;8.90;99.90;;;;;;5018512;28;20095;-82
2021/12/17 16:53:40;;;;;;;23.58;12.50;;;9.00;99.90;;;;;;5018588;28;20037;-81
2021/12/17 16:56:07;;;;;;;31.15;13.23;;;9.00;99.90;;;;;;5019213;28;20107;-80
2021/12/17 16:58:33;;;;;;;24.85;13.38;;;9.00;99.90;;;;;;5018941;28;20046;-81
2021/12/17 17:00:59;;;;;;;25.63;12.43;;;8.90;99.90;;;;;;5017833;28;20136;-79
2021/12/17 17:03:25;;;;;;;26.00;12.48;;;8.90;99.90;;;;;;5017524;28;20037;-79
2021/12/17 17:05:52;;;;;;;24.48;11.65;;;9.00;99.90;;;;;;5035474;28;20083;-79
2021/12/17 17:08:17;;;;;;;22.05;11.30;;;8.90;99.90;;;;;;5017371;28;20044;-80
2021/12/17 17:10:51;;;;;;;22.35;10.40;;;8.90;99.90;;;;;;5017639;28;20403;-80
2021/12/17 17:13:16;;;;;;;19.55;9.93;;;9.00;99.90;;;;;;5017634;28;20442;-80
2021/12/17 17:15:42;;;;;;;22.02;10.43;;;8.90;99.90;;;;;;5017463;28;20041;-79
2021/12/17 17:18:09;;;;;;;24.10;11.20;;;8.90;99.90;;;;;;5017601;28;20479;-78
2021/12/17 17:20:35;;;;;;;20.67;11.65;;;8.90;99.90;;;;;;5015943;28;20049;-79
2021/12/17 17:23:02;;;;;;;20.83;11.20;;;8.90;99.90;;;;;;5015137;28;20046;-80
2021/12/17 17:25:29;;;;;;;17.40;9.07;;;8.90;99.90;;;;;;4996203;28;20062;-81
2021/12/17 17:27:55;;;;;;;15.07;8.18;;;8.90;99.90;;;;;;4997458;28;20048;-78
2021/12/17 17:30:22;;;;;;;17.13;8.50;;;8.90;99.90;;;;;;4979597;28;20080;-80
2021/12/17 17:32:48;;;;;;;18.75;9.63;;;8.90;99.90;;;;;;4997248;28;20049;-79
2021/12/17 17:35:14;;;;;;;20.30;9.30;;;8.90;99.90;;;;;;4996823;28;20052;-79
2021/12/17 17:37:40;;;;;;;18.52;9.82;;;8.90;99.90;;;;;;5015038;28;20037;-80
2021/12/17 17:40:08;;;;;;;19.10;8.93;;;8.90;99.90;;;;;;4997324;28;20034;-79
2021/12/17 17:42:34;;;;;;;18.63;8.98;;;8.90;99.90;;;;;;4997412;28;20096;-81
2021/12/17 17:45:00;;;;;;;17.25;8.82;;;8.90;99.90;;;;;;4997539;28;20041;-79
2021/12/17 17:47:25;;;;;;;19.33;9.20;;;8.90;99.90;;;;;;4997400;28;20483;-79
2021/12/17 17:49:52;;;;;;;21.48;10.40;;;8.90;99.90;;;;;;4996795;28;20104;-81
2021/12/17 17:52:18;;;;;;;20.65;10.40;;;8.90;99.90;;;;;;4980565;28;20045;-81
2021/12/17 17:54:44;;;;;;;20.75;9.80;;;8.90;99.90;;;;;;4980502;28;20042;-80
2021/12/17 17:57:10;;;;;;;24.77;12.18;;;8.90;99.90;;;;;;4997245;28;20168;-80
2021/12/17 17:59:37;;;;;;;23.33;11.80;;;8.90;99.90;;;;;;4997206;28;20117;-79
2021/12/17 18:02:03;;;;;;;22.48;11.15;;;8.90;99.90;;;;;;4996779;28;20042;-81
2021/12/17 18:04:29;;;;;;;21.20;11.00;;;8.90;99.90;;;;;;4996907;28;20049;-79
2021/12/17 18:06:55;;;;;;;23.02;11.20;;;8.90;99.90;;;;;;4996638;28;20038;-80
2021/12/17 18:09:21;;;;;;;18.20;9.60;;;8.90;99.90;;;;;;4996598;28;20049;-79
2021/12/17 18:11:48;;;;;;;19.98;10.25;;;8.90;99.90;;;;;;4996574;28;20034;-81
2021/12/17 18:14:13;;;;;;;21.17;9.82;;;8.90;99.90;;;;;;4996651;28;20053;-81
2021/12/17 18:16:39;;;;;;;21.35;10.65;;;8.90;99.90;;;;;;4996648;28;20042;-80
2021/12/17 18:19:05;;;;;;;21.45;9.95;;;8.90;99.90;;;;;;4980587;28;20042;-79
2021/12/17 18:21:31;;;;;;;19.33;9.10;;;8.90;99.90;;;;;;4996508;28;20042;-80
2021/12/17 18:23:57;;;;;;;21.17;10.80;;;8.80;99.90;;;;;;4997084;28;20049;-79
2021/12/17 18:26:22;;;;;;;22.77;10.48;;;8.90;99.90;;;;;;4996344;28;20048;-80
2021/12/17 18:28:48;;;;;;;27.13;11.25;;;8.90;99.90;;;;;;4996724;28;20046;-79
2021/12/17 18:31:14;;;;;;;24.05;11.25;;;8.80;99.90;;;;;;4996352;28;20056;-79